Wednesday, July 23, 2014
20:04 UTC
  |  Log In   |  Register Free
Airport Search:

Petaluma Municipal Airport
(O69)

Petaluma Municipal Airport Diagram
No Airport Diagram Available

FAA data valid effective May 29, 2014 until July 24, 2014 (unless otherwise noted).

 
 
 
 
 
 
 
 
 
 
 
 
 
 

Current Aviation Weather for Petaluma Municipal Airport (O69)

The most recent METAR observation for KDVO was updated at: 1935 UTC
METAR Summary (Translated METAR)
KDVO
231935Z AUTO 25005KT 10SM BKN033 24/15 A3013 RMK AO2
KAPC
(13.6 nm NE from KDVO)
231854Z 24012G17KT 10SM SCT031 25/15 A3012 RMK AO2 SLP191 T02500150
TAF Summary (Translated TAF)
KSTS
(25 nm NW from KDVO)
231730Z 2318/2418 00000KT P6SM FEW035 SCT045 FM232100 19011KT P6SM SCT050 FM240300 18004KT P6SM SKC FM240800 00000KT P6SM SKC
  Airport Weather Conditions for O69

Current weather conditions are
not available for O69


The nearest NOAA weather station
is at DVO, (7.2 nm SE from O69)
  
 Current Weather at DVO
72° F
Overcast
West winds at 4.6 mph
DVO NOAA Radar

Pressure: 30.14 in
Humidity: 69%
Wind: West at 4.6 MPH (4 KT)
Dew Point: 60.8°F
Visibility: 10.00 mi


Airport Weather Forecast for O69

Translated METAR and TAF for KDVO
Translated METAR for KDVO (1957 UTC 23 July 2014)
found at http://aviationweather.gov/adds/metars/
 
METAR text: KDVO 231935Z AUTO 25005KT 10SM BKN033 24/15 A3013 RMK AO2
Conditions at: KDVO (NOVATO/GNOSS FLD, CA, US) observed 1935 UTC 23 July 2014
Temperature: 24.0°C (75°F)
Dewpoint: 15.0°C (59°F) [RH = 57%]
Pressure (altimeter): 30.13 inches Hg (1020.4 mb)
Winds: from the WSW (250 degrees) at 6 MPH (5 knots; 2.6 m/s)
Visibility: 10 or more miles (16+ km)
Ceiling: 3300 feet AGL
Clouds: broken clouds at 3300 feet AGL
Weather: automated observation with no human augmentation;
there may or may not be significant weather present at this time
Translated TAF for KDVO

There is no translated TAF available for this airport

Find All Airport Services Find A Hotel Find A Rental Car Find A Golf Course Find A Restaurant $100 Hamburger



FBO's on the Field
FBO Company Facility Photos Services Transportation Aviation Fuel Prices: Prices include tax
Catering Weather Repair Courtesy Rental Type 100LL JetA JetA+ MOGAS 8087
 
Petaluma Municipal Airport

Currently rated 4.8 by 1 person
FS:Ascent
Last Updated: Jul-21
Login to update fuel prices
SS:
Contact Petaluma Municipal AirportMore FBO Information
 
Add another FBO Facility Photos Catering Weather Repair Courtesy Rental Type 100LL JetA JetA+ MOGAS 8087
Services Transportation Aviation Fuel Prices: Prices include tax


GlobalAir.com Airport Resource Center model-print
model-print
model-print
model-print